Time;durP1;ratioP1;P1;durP2;ratioP2;P2;SDS_P1;SDS_P2;PMS_P1;PMS_P2;Temp;Humidity;BMP_temperature;BMP_pressure;BME280_temperature;BME280_humidity;BME280_pressure;Samples;Min_cycle;Max_cycle;Signal;HPM_P1;HPM_P2
2021/10/12 00:01:19;;;;;;;18.30;4.15;;;;;;;21.40;44.57;101776.13;4436492;32;20464;-71
2021/10/12 00:03:45;;;;;;;11.38;4.40;;;;;;;21.55;44.16;101765.53;4442382;32;20100;-71
2021/10/12 00:06:11;;;;;;;18.52;4.93;;;;;;;21.35;44.74;101771.88;4442419;32;20351;-71
2021/10/12 00:08:38;;;;;;;19.50;4.72;;;;;;;21.34;44.78;101758.84;4436562;32;20091;-71
2021/10/12 00:11:05;;;;;;;15.27;5.03;;;;;;;21.57;44.54;101769.47;4438921;32;20104;-71
2021/10/12 00:13:31;;;;;;;20.85;4.50;;;;;;;21.53;44.49;101765.22;4436333;32;20022;-70
2021/10/12 00:15:57;;;;;;;19.60;4.68;;;;;;;21.05;45.29;101772.25;4440306;32;20077;-71
2021/10/12 00:18:23;;;;;;;17.37;4.97;;;;;;;21.18;45.21;101773.59;4437526;32;20061;-71
2021/10/12 00:20:49;;;;;;;13.48;4.55;;;;;;;20.91;45.99;101770.06;4441642;32;20025;-71
2021/10/12 00:23:15;;;;;;;18.17;4.43;;;;;;;21.03;45.94;101767.03;4444513;32;20087;-71
2021/10/12 00:25:41;;;;;;;16.98;4.90;;;;;;;21.10;45.82;101765.84;4429844;32;20069;-71
2021/10/12 00:28:08;;;;;;;16.55;4.15;;;;;;;21.42;45.05;101765.75;4443427;32;20490;-71
2021/10/12 00:30:34;;;;;;;18.60;4.50;;;;;;;21.24;45.66;101776.56;4440758;32;20138;-71
2021/10/12 00:33:00;;;;;;;14.30;3.60;;;;;;;20.86;46.47;101765.03;4439014;32;20418;-71
2021/10/12 00:35:25;;;;;;;11.43;4.22;;;;;;;20.93;46.31;101768.31;4444915;32;20081;-71
2021/10/12 00:37:51;;;;;;;19.77;3.92;;;;;;;20.94;46.10;101749.91;4440466;32;20095;-71
2021/10/12 00:40:17;;;;;;;17.35;4.22;;;;;;;20.85;46.71;101749.13;4439287;32;20048;-71
2021/10/12 00:42:43;;;;;;;10.52;3.47;;;;;;;20.93;46.40;101750.34;4436657;32;20651;-71
2021/10/12 00:45:12;;;;;;;15.00;4.30;;;;;;;21.02;46.28;101747.47;4448765;32;20183;-71
2021/10/12 00:47:39;;;;;;;12.98;3.97;;;;;;;20.94;46.60;101744.19;4438556;32;20437;-71
2021/10/12 00:50:07;;;;;;;12.40;3.80;;;;;;;21.00;46.64;101741.44;4442645;32;20449;-71
2021/10/12 00:52:35;;;;;;;11.93;3.05;;;;;;;21.27;46.07;101741.25;4429470;32;20080;-71
2021/10/12 00:55:01;;;;;;;8.25;3.08;;;;;;;21.36;45.67;101750.53;4439314;32;20037;-71
2021/10/12 00:57:26;;;;;;;16.33;3.40;;;;;;;21.46;45.24;101749.22;4439840;32;20075;-71
2021/10/12 00:59:53;;;;;;;14.55;3.33;;;;;;;21.65;45.06;101752.69;4444604;32;20044;-71
2021/10/12 01:02:19;;;;;;;14.70;3.33;;;;;;;21.44;45.52;101754.63;4442893;32;20065;-70
2021/10/12 01:04:46;;;;;;;15.63;2.75;;;;;;;21.85;44.71;101740.59;4442889;32;20065;-70
2021/10/12 01:07:11;;;;;;;19.58;2.83;;;;;;;21.45;45.42;101752.56;4444093;32;20025;-70
2021/10/12 01:09:39;;;;;;;9.68;3.60;;;;;;;21.31;45.78;101750.44;4440401;32;20096;-70
2021/10/12 01:12:05;;;;;;;17.25;3.42;;;;;;;21.82;45.03;101759.59;4440358;32;20077;-70
2021/10/12 01:14:31;;;;;;;9.63;3.70;;;;;;;21.66;45.15;101746.47;4445826;32;20103;-70
2021/10/12 01:16:56;;;;;;;12.13;3.87;;;;;;;21.45;45.77;101744.75;4442046;32;20056;-70
2021/10/12 01:19:22;;;;;;;9.38;3.33;;;;;;;21.56;45.47;101738.44;4442392;32;20032;-70
2021/10/12 01:21:49;;;;;;;9.82;4.00;;;;;;;20.99;46.77;101731.28;4425750;32;20113;-70
2021/10/12 01:24:16;;;;;;;9.60;3.35;;;;;;;20.61;47.64;101746.22;4440480;32;20108;-70
2021/10/12 01:26:43;;;;;;;13.50;3.75;;;;;;;21.39;45.77;101748.78;4438253;32;20503;-70
2021/10/12 01:29:11;;;;;;;15.38;3.90;;;;;;;20.83;46.61;101740.25;4441262;32;20398;-70
2021/10/12 01:31:37;;;;;;;10.70;3.70;;;;;;;20.73;47.05;101730.09;4437879;32;20157;-70
2021/10/12 01:34:12;;;;;;;13.77;3.50;;;;;;;21.20;45.82;101735.91;4439514;32;20068;-70
2021/10/12 01:36:38;;;;;;;;;;;;;;;21.42;45.24;101736.34;4439740;32;20484;-70
2021/10/12 01:39:03;;;;;;;18.95;3.17;;;;;;;21.44;45.19;101743.16;4434332;32;19984;-70
2021/10/12 01:41:29;;;;;;;10.88;3.20;;;;;;;21.07;45.83;101732.47;4437708;32;20102;-70
2021/10/12 01:43:56;;;;;;;11.63;2.75;;;;;;;21.53;44.94;101725.09;4443264;32;20108;-70
2021/10/12 01:46:22;;;;;;;11.07;2.60;;;;;;;21.83;44.57;101726.75;4439717;32;20358;-70
2021/10/12 01:48:48;;;;;;;8.68;2.67;;;;;;;22.00;44.04;101735.66;4440781;32;20040;-70
2021/10/12 01:51:14;;;;;;;11.70;2.78;;;;;;;22.03;43.70;101731.81;4435713;32;20095;-70
2021/10/12 01:53:40;;;;;;;11.38;2.37;;;;;;;21.71;44.34;101716.34;4428956;32;20069;-70
2021/10/12 01:56:08;;;;;;;7.25;1.95;;;;;;;21.45;44.36;101726.78;4428811;32;20104;-70
2021/10/12 01:58:35;;;;;;;7.90;2.10;;;;;;;21.84;43.85;101721.84;4438715;32;20077;-70
2021/10/12 02:01:02;;;;;;;5.97;1.73;;;;;;;21.89;43.40;101715.37;4441107;32;20041;-70
2021/10/12 02:03:28;;;;;;;6.47;1.40;;;;;;;22.10;42.94;101717.06;4438213;32;20072;-70
2021/10/12 02:05:54;;;;;;;10.63;1.67;;;;;;;22.17;42.38;101708.88;4440071;32;20126;-70
2021/10/12 02:08:20;;;;;;;5.00;1.52;;;;;;;22.02;41.84;101707.28;4439347;32;21627;-70
2021/10/12 02:10:46;;;;;;;6.95;1.30;;;;;;;22.15;41.38;101714.28;4439518;32;20068;-70
2021/10/12 02:13:12;;;;;;;6.55;1.62;;;;;;;22.12;41.24;101708.78;4438971;32;20026;-70
2021/10/12 02:15:38;;;;;;;7.60;1.40;;;;;;;21.61;41.78;101701.34;4435207;32;20068;-70
2021/10/12 02:18:03;;;;;;;7.05;1.50;;;;;;;22.04;41.00;101699.78;4440480;32;20078;-70
2021/10/12 02:20:29;;;;;;;7.37;1.35;;;;;;;21.60;41.85;101694.00;4424789;32;20077;-70
2021/10/12 02:22:55;;;;;;;9.25;1.85;;;;;;;21.69;41.69;101699.66;4442428;32;20134;-70
2021/10/12 02:25:20;;;;;;;11.63;2.17;;;;;;;21.66;41.98;101694.09;4441992;32;20069;-70
2021/10/12 02:27:46;;;;;;;7.72;1.98;;;;;;;21.65;42.10;101683.94;4440322;32;20065;-70
2021/10/12 02:30:13;;;;;;;10.10;1.85;;;;;;;21.24;43.06;101679.22;4438275;32;20025;-70
2021/10/12 02:32:39;;;;;;;8.13;1.40;;;;;;;21.14;43.65;101689.97;4437154;32;20188;-70
2021/10/12 02:35:05;;;;;;;4.10;1.60;;;;;;;21.50;42.90;101683.12;4441608;32;20494;-70
2021/10/12 02:37:31;;;;;;;10.55;1.95;;;;;;;21.77;42.52;101684.94;4437357;32;20066;-70
2021/10/12 02:39:57;;;;;;;7.97;1.90;;;;;;;21.55;42.89;101680.38;4441187;32;20077;-70
2021/10/12 02:42:23;;;;;;;9.65;2.22;;;;;;;21.45;43.22;101678.88;4439997;32;20453;-70
2021/10/12 02:44:48;;;;;;;8.38;1.83;;;;;;;21.43;43.14;101681.44;4436215;32;21494;-70
2021/10/12 02:47:14;;;;;;;9.85;2.22;;;;;;;21.40;43.70;101673.84;4439133;32;20041;-70
2021/10/12 02:49:40;;;;;;;7.30;2.10;;;;;;;21.51;43.50;101676.12;4438413;32;20102;-70
2021/10/12 02:52:05;;;;;;;7.25;2.00;;;;;;;21.17;44.40;101673.87;4443087;32;20095;-70
2021/10/12 02:54:32;;;;;;;7.25;1.80;;;;;;;21.31;43.95;101679.66;4439339;32;20108;-70
2021/10/12 02:56:57;;;;;;;9.73;1.75;;;;;;;21.20;44.37;101667.97;4441051;32;20094;-70
2021/10/12 02:59:23;;;;;;;9.60;2.12;;;;;;;20.79;45.33;101666.03;4440612;32;20425;-70
2021/10/12 03:01:49;;;;;;;12.98;2.28;;;;;;;21.13;44.60;101671.22;4439542;32;20068;-70
2021/10/12 03:04:14;;;;;;;7.32;2.17;;;;;;;21.22;44.48;101673.19;4437879;32;20164;-70
2021/10/12 03:06:41;;;;;;;6.78;2.03;;;;;;;21.61;43.52;101664.09;4438369;32;20058;-70
2021/10/12 03:09:07;;;;;;;6.60;2.33;;;;;;;21.46;43.88;101662.47;4437619;32;20560;-70
2021/10/12 03:11:32;;;;;;;10.38;2.30;;;;;;;21.43;43.65;101660.59;4435613;32;20061;-70
2021/10/12 03:13:58;;;;;;;9.73;3.00;;;;;;;21.32;43.92;101664.03;4438196;32;20064;-70
2021/10/12 03:16:24;;;;;;;7.40;2.60;;;;;;;21.40;43.59;101655.84;4438620;32;20159;-70
2021/10/12 03:18:50;;;;;;;13.05;2.72;;;;;;;21.47;43.42;101650.53;4436761;32;20068;-70
2021/10/12 03:21:16;;;;;;;8.07;2.08;;;;;;;21.03;44.29;101648.88;4440021;32;20474;-70
2021/10/12 03:23:42;;;;;;;8.05;2.10;;;;;;;20.90;44.32;101654.81;4438404;32;20411;-70
2021/10/12 03:26:08;;;;;;;10.88;2.20;;;;;;;21.17;43.93;101657.50;4438194;32;20065;-70
2021/10/12 03:28:34;;;;;;;9.55;2.75;;;;;;;20.97;44.14;101650.81;4435249;32;20095;-70
2021/10/12 03:31:00;;;;;;;14.98;2.72;;;;;;;21.28;43.69;101646.28;4438662;32;20042;-70
2021/10/12 03:33:25;;;;;;;10.48;2.35;;;;;;;21.26;43.67;101654.53;4439765;32;20083;-70
2021/10/12 03:35:56;;;;;;;16.48;2.70;;;;;;;21.14;43.96;101649.88;4438344;32;20068;-70
2021/10/12 03:38:24;;;;;;;11.43;3.15;;;;;;;21.43;43.35;101646.28;4440131;32;20095;-70
2021/10/12 03:40:50;;;;;;;9.10;3.03;;;;;;;21.18;44.09;101633.31;4438672;32;20413;-70
2021/10/12 03:43:17;;;;;;;11.73;3.17;;;;;;;21.11;44.00;101636.53;4436778;32;20454;-70
2021/10/12 03:45:44;;;;;;;12.48;2.80;;;;;;;20.94;44.30;101635.44;4433486;32;20117;-70
2021/10/12 03:48:10;;;;;;;9.30;2.50;;;;;;;20.87;44.57;101621.47;4440883;32;20080;-70
2021/10/12 03:50:36;;;;;;;9.73;2.50;;;;;;;21.05;43.87;101629.16;4435470;32;20092;-70
2021/10/12 03:53:02;;;;;;;12.13;2.80;;;;;;;21.13;43.30;101638.91;4437682;32;20408;-70
2021/10/12 03:55:28;;;;;;;11.05;2.95;;;;;;;20.72;44.26;101632.06;4438296;32;20030;-70
2021/10/12 03:57:53;;;;;;;8.27;2.75;;;;;;;20.75;44.22;101639.69;4438764;32;20036;-70
2021/10/12 04:00:19;;;;;;;8.50;2.85;;;;;;;20.45;44.74;101629.38;4441872;32;20073;-70
2021/10/12 04:02:45;;;;;;;11.38;2.67;;;;;;;20.71;44.22;101623.97;4438008;32;20156;-70
2021/10/12 04:05:11;;;;;;;11.12;2.85;;;;;;;20.68;44.07;101619.22;4436879;32;20034;-70
2021/10/12 04:07:37;;;;;;;8.48;2.47;;;;;;;20.38;44.93;101611.78;4437639;32;20056;-70
2021/10/12 04:10:04;;;;;;;6.37;2.65;;;;;;;20.81;43.94;101597.69;4437064;32;20026;-70
2021/10/12 04:12:30;;;;;;;8.98;3.00;;;;;;;20.65;44.56;101603.81;4436704;32;20096;-70
2021/10/12 04:14:56;;;;;;;11.48;2.67;;;;;;;20.52;44.71;101594.69;4437893;32;20395;-70
2021/10/12 04:17:22;;;;;;;9.90;2.58;;;;;;;20.73;44.36;101592.78;4440592;32;20074;-70
2021/10/12 04:19:48;;;;;;;11.90;2.80;;;;;;;20.55;44.83;101588.00;4442022;32;20096;-70
2021/10/12 04:22:13;;;;;;;13.13;2.60;;;;;;;20.67;44.58;101586.97;4437234;32;20083;-70
2021/10/12 04:24:40;;;;;;;13.68;2.75;;;;;;;20.72;44.63;101588.38;4436520;32;20456;-70
2021/10/12 04:27:06;;;;;;;17.15;3.47;;;;;;;20.92;44.41;101586.44;4435284;32;20489;-70
2021/10/12 04:29:32;;;;;;;12.70;3.10;;;;;;;20.81;44.44;101583.38;4443273;32;20090;-70
2021/10/12 04:32:00;;;;;;;8.80;3.10;;;;;;;20.80;44.93;101587.50;4435942;32;20478;-70
2021/10/12 04:34:27;;;;;;;12.25;3.05;;;;;;;21.00;44.87;101584.03;4439512;32;20096;-70
2021/10/12 04:36:54;;;;;;;9.40;2.78;;;;;;;20.95;44.98;101590.41;4440793;32;20387;-70
2021/10/12 04:39:20;;;;;;;11.63;3.08;;;;;;;20.74;45.63;101585.81;4438589;32;20748;-70
2021/10/12 04:41:46;;;;;;;9.57;3.30;;;;;;;20.37;46.45;101588.12;4441497;32;20081;-70
2021/10/12 04:44:11;;;;;;;11.68;2.70;;;;;;;21.03;44.87;101583.84;4433419;32;20867;-70
2021/10/12 04:46:39;;;;;;;11.88;3.45;;;;;;;20.75;45.32;101575.94;4438464;32;20495;-70
2021/10/12 04:49:05;;;;;;;16.65;3.10;;;;;;;20.61;45.92;101574.62;4438346;32;20108;-70
2021/10/12 04:51:32;;;;;;;6.78;2.60;;;;;;;20.88;45.31;101574.41;4423917;32;20025;-70
2021/10/12 04:53:58;;;;;;;10.05;2.95;;;;;;;20.93;45.02;101582.28;4437491;32;20609;-70
2021/10/12 04:56:23;;;;;;;9.57;2.97;;;;;;;21.07;44.40;101580.75;4437008;32;20030;-70
2021/10/12 04:58:49;;;;;;;9.20;2.42;;;;;;;21.17;44.09;101576.56;4436728;32;20099;-70
2021/10/12 05:01:15;;;;;;;10.90;2.60;;;;;;;20.99;44.48;101573.88;4436277;32;20088;-70
2021/10/12 05:03:40;;;;;;;5.95;2.15;;;;;;;20.81;44.99;101573.97;4435995;32;20513;-70
2021/10/12 05:06:06;;;;;;;11.52;3.03;;;;;;;20.74;45.32;101568.66;4437933;32;20041;-70
2021/10/12 05:08:33;;;;;;;10.80;3.17;;;;;;;21.22;43.91;101559.47;4444676;32;20041;-70
2021/10/12 05:10:59;;;;;;;9.73;2.67;;;;;;;21.14;44.30;101564.00;4442410;32;20022;-70
2021/10/12 05:13:25;;;;;;;7.47;2.58;;;;;;;21.22;44.24;101562.34;4443385;32;20093;-70
2021/10/12 05:15:50;;;;;;;8.63;2.80;;;;;;;20.90;45.02;101557.50;4438724;32;20064;-70
2021/10/12 05:18:21;;;;;;;9.90;2.50;;;;;;;21.17;44.47;101551.56;4439739;32;20073;-70
2021/10/12 05:20:47;;;;;;;18.05;2.78;;;;;;;21.00;44.57;101547.62;4443453;32;20615;-71
2021/10/12 05:23:14;;;;;;;11.23;2.85;;;;;;;20.99;44.60;101550.97;4441402;32;20113;-70
2021/10/12 05:25:40;;;;;;;7.00;2.15;;;;;;;21.39;44.05;101543.38;4438650;32;20048;-70
2021/10/12 05:28:08;;;;;;;7.07;2.33;;;;;;;21.49;43.83;101542.00;4443990;32;20563;-70
2021/10/12 05:30:39;;;;;;;7.55;2.17;;;;;;;21.81;43.36;101545.16;4439787;32;20037;-71
2021/10/12 05:33:08;;;;;;;10.20;2.30;;;;;;;21.48;43.59;101539.63;4443311;32;20093;-70
2021/10/12 05:35:34;;;;;;;9.98;2.08;;;;;;;21.47;43.94;101541.69;4436616;32;20437;-70
2021/10/12 05:37:59;;;;;;;6.93;2.62;;;;;;;21.51;43.74;101552.97;4440903;32;20084;-70
2021/10/12 05:40:25;;;;;;;12.52;2.62;;;;;;;21.51;43.74;101552.97;4443402;32;20477;-70
2021/10/12 05:42:51;;;;;;;7.95;2.72;;;;;;;21.63;43.33;101549.78;4439590;32;20072;-70
2021/10/12 05:45:16;;;;;;;5.87;2.35;;;;;;;21.72;43.25;101551.72;4439443;32;20164;-70
2021/10/12 05:47:42;;;;;;;13.10;1.95;;;;;;;21.57;43.49;101553.84;4437069;32;20041;-70
2021/10/12 05:50:08;;;;;;;4.53;1.75;;;;;;;21.46;43.71;101563.03;4440658;32;20170;-70
2021/10/12 05:52:39;;;;;;;6.97;1.55;;;;;;;21.81;43.10;101550.88;4438659;32;20080;-70
2021/10/12 05:58:04;;;;;;;9.15;2.05;;;;;;;21.75;43.74;101564.31;3980129;32;15129490;-71
2021/10/12 06:00:28;;;;;;;11.55;2.40;;;;;;;21.75;43.74;101564.31;4437002;32;20059;-71
2021/10/12 06:02:54;;;;;;;5.32;1.95;;;;;;;21.38;44.07;101561.84;4436851;32;20475;-71
2021/10/12 06:05:19;;;;;;;12.70;2.90;;;;;;;21.60;43.62;101561.47;4437539;32;20091;-71
2021/10/12 06:07:45;;;;;;;6.47;1.75;;;;;;;21.46;43.79;101560.19;4438043;32;20085;-71
2021/10/12 06:10:11;;;;;;;8.35;2.17;;;;;;;21.50;43.78;101562.81;4439135;32;20017;-71
2021/10/12 06:12:36;;;;;;;7.75;1.90;;;;;;;21.63;43.56;101554.72;4438256;32;20090;-71
2021/10/12 06:15:03;;;;;;;7.12;1.87;;;;;;;21.70;43.23;101565.78;4435221;32;20187;-71
2021/10/12 06:17:29;;;;;;;10.05;1.87;;;;;;;21.55;43.76;101559.28;4436996;32;20837;-71
2021/10/12 06:19:55;;;;;;;8.23;1.95;;;;;;;21.32;44.26;101565.87;4429443;32;20446;-71
2021/10/12 06:22:21;;;;;;;4.93;1.62;;;;;;;20.89;45.12;101558.03;4436695;32;20400;-71
2021/10/12 06:24:47;;;;;;;8.30;2.45;;;;;;;21.28;44.26;101551.78;4432852;32;20112;-71
2021/10/12 06:27:14;;;;;;;7.30;2.03;;;;;;;21.58;43.78;101541.91;4433071;32;20042;-72
2021/10/12 06:29:39;;;;;;;8.18;2.45;;;;;;;21.62;43.77;101553.94;4434232;32;20507;-71
2021/10/12 06:32:05;;;;;;;8.63;1.70;;;;;;;21.73;43.61;101559.06;4435585;32;20085;-71
2021/10/12 06:34:31;;;;;;;5.47;1.70;;;;;;;21.35;44.37;101559.97;4428272;32;20089;-71
2021/10/12 06:36:57;;;;;;;4.43;1.80;;;;;;;21.66;43.79;101563.09;4432747;32;20152;-71
2021/10/12 06:39:22;;;;;;;12.43;2.12;;;;;;;22.11;42.92;101564.63;4432947;32;20133;-71
2021/10/12 06:41:48;;;;;;;11.25;2.25;;;;;;;21.92;43.08;101562.50;4431815;32;20523;-71
2021/10/12 06:44:14;;;;;;;6.68;2.03;;;;;;;22.17;42.59;101561.84;4431885;32;20034;-71
2021/10/12 06:46:40;;;;;;;5.00;1.80;;;;;;;22.12;43.12;101566.19;4426881;32;20085;-71
2021/10/12 06:49:06;;;;;;;10.00;2.67;;;;;;;22.08;42.96;101561.97;4432983;32;20092;-71
2021/10/12 06:51:31;;;;;;;7.18;1.75;;;;;;;22.18;42.88;101566.31;4428847;32;20033;-71
2021/10/12 06:53:57;;;;;;;11.95;2.40;;;;;;;22.29;42.70;101563.56;4426348;32;20082;-70
2021/10/12 06:56:23;;;;;;;7.32;2.05;;;;;;;22.10;43.13;101577.41;4417996;32;20450;-70
2021/10/12 06:58:50;;;;;;;11.07;1.95;;;;;;;22.01;43.43;101571.78;4417549;32;20461;-70
2021/10/12 07:01:16;;;;;;;13.07;2.45;;;;;;;22.21;42.96;101568.94;4415682;32;20076;-70
2021/10/12 07:03:41;;;;;;;9.57;2.45;;;;;;;22.09;43.06;101564.31;4416553;32;20622;-70
2021/10/12 07:06:07;;;;;;;10.43;2.08;;;;;;;21.95;43.81;101558.63;4411547;32;20069;-71
2021/10/12 07:08:33;;;;;;;9.95;2.10;;;;;;;22.32;43.54;101560.50;4402941;32;20062;-71
2021/10/12 07:10:59;;;;;;;11.35;2.78;;;;;;;22.20;43.60;101573.09;4406888;32;20085;-71
2021/10/12 07:13:29;;;;;;;8.27;2.80;;;;;;;22.54;43.37;101569.44;4404176;32;20064;-72
2021/10/12 07:15:56;;;;;;;8.13;1.70;;;;;;;22.32;43.15;101571.19;4405428;32;20581;-71
2021/10/12 07:18:23;;;;;;;9.50;2.15;;;;;;;22.35;43.41;101575.91;4407415;32;20780;-71
2021/10/12 07:20:49;;;;;;;6.05;2.37;;;;;;;22.67;42.71;101574.81;4403665;32;20474;-71
2021/10/12 07:23:15;;;;;;;7.68;2.12;;;;;;;21.89;43.98;101578.63;4404623;32;20061;-71
2021/10/12 07:25:40;;;;;;;6.60;1.62;;;;;;;22.34;43.10;101575.16;4404018;32;20486;-71
2021/10/12 07:28:06;;;;;;;8.85;1.90;;;;;;;22.54;42.73;101580.13;4402812;32;20463;-72
2021/10/12 07:30:32;;;;;;;8.43;1.62;;;;;;;22.60;42.20;101581.78;4402460;32;20418;-71
2021/10/12 07:32:57;;;;;;;8.23;1.42;;;;;;;22.48;42.89;101582.09;4406929;32;20038;-71
2021/10/12 07:35:23;;;;;;;9.25;1.77;;;;;;;22.54;42.72;101583.78;4404126;32;20077;-71
2021/10/12 07:37:48;;;;;;;6.00;1.48;;;;;;;22.39;43.13;101590.81;4407903;32;20089;-70
2021/10/12 07:40:14;;;;;;;8.77;2.17;;;;;;;22.28;43.41;101596.41;4404840;32;20698;-71
2021/10/12 07:42:40;;;;;;;12.18;2.17;;;;;;;22.80;42.51;101595.34;4407493;32;20483;-71
2021/10/12 07:45:07;;;;;;;5.03;1.62;;;;;;;22.83;42.92;101595.09;4408033;32;20517;-69
2021/10/12 07:47:32;;;;;;;8.63;2.08;;;;;;;22.84;43.93;101601.62;4406769;32;20094;-69
2021/10/12 07:49:58;;;;;;;9.27;2.15;;;;;;;22.55;44.51;101604.66;4409787;32;20804;-68
2021/10/12 07:52:24;;;;;;;5.28;1.85;;;;;;;22.73;44.73;101602.28;4407114;32;20046;-70
2021/10/12 07:55:00;;;;;;;11.93;1.98;;;;;;;22.17;45.01;101607.72;4404475;32;20070;-69
2021/10/12 07:57:26;;;;;;;8.30;1.75;;;;;;;22.35;45.04;101614.00;4407367;32;20569;-68
2021/10/12 07:59:51;;;;;;;6.62;1.65;;;;;;;22.07;45.50;101597.66;4405272;32;20074;-67
2021/10/12 08:02:17;;;;;;;9.07;1.65;;;;;;;21.98;46.10;101594.91;4409206;32;20971;-68
2021/10/12 08:04:43;;;;;;;12.55;1.73;;;;;;;21.65;46.76;101581.59;4405816;32;20139;-68
2021/10/12 08:07:10;;;;;;;6.72;2.17;;;;;;;21.80;46.36;101578.72;4408223;32;20589;-69
2021/10/12 08:09:36;;;;;;;11.93;2.37;;;;;;;21.97;46.73;101585.53;4411330;32;20404;-69
2021/10/12 08:12:04;;;;;;;6.97;1.95;;;;;;;22.09;46.17;101578.66;4407619;32;20576;-68
2021/10/12 08:14:32;;;;;;;6.18;1.87;;;;;;;22.35;45.68;101576.72;4410921;32;20417;-69
2021/10/12 08:16:58;;;;;;;8.32;2.22;;;;;;;22.45;45.66;101583.88;4411627;32;20104;-68
2021/10/12 08:19:24;;;;;;;10.90;2.55;;;;;;;22.22;45.88;101596.34;4413966;32;20123;-69
2021/10/12 08:21:50;;;;;;;9.48;2.30;;;;;;;22.53;45.76;101593.69;4410211;32;20037;-68
2021/10/12 08:24:19;;;;;;;8.35;2.70;;;;;;;22.46;45.65;101601.91;4408682;32;20101;-68
2021/10/12 08:26:45;;;;;;;13.27;2.80;;;;;;;22.72;45.53;101591.31;4411941;32;21594;-69
2021/10/12 08:29:11;;;;;;;10.95;2.47;;;;;;;21.99;46.92;101590.78;4407732;32;20058;-68
2021/10/12 08:31:37;;;;;;;9.90;2.00;;;;;;;22.38;45.89;101595.78;4407632;32;20126;-69
2021/10/12 08:34:03;;;;;;;6.00;1.70;;;;;;;22.38;46.07;101601.53;4402190;32;20087;-68
2021/10/12 08:36:28;;;;;;;4.37;2.37;;;;;;;22.14;46.12;101606.63;4407048;32;20064;-68
2021/10/12 08:38:56;;;;;;;8.85;1.67;;;;;;;22.13;46.47;101590.72;4402040;32;20081;-68
2021/10/12 08:41:29;;;;;;;12.65;2.37;;;;;;;22.33;45.83;101599.34;4409481;32;20073;-68
2021/10/12 08:43:56;;;;;;;13.80;2.97;;;;;;;22.80;45.44;101601.84;4408049;32;20568;-68
2021/10/12 08:46:27;;;;;;;7.18;2.65;;;;;;;22.70;45.36;101600.41;4405104;32;20102;-68
2021/10/12 08:48:57;;;;;;;7.57;2.00;;;;;;;23.30;44.74;101596.72;4412107;32;20520;-68
2021/10/12 08:51:25;;;;;;;7.65;2.12;;;;;;;23.26;44.45;101602.69;4410797;32;20497;-68
2021/10/12 08:53:51;;;;;;;5.28;1.58;;;;;;;22.99;45.09;101594.53;4406338;32;20074;-68
2021/10/12 08:56:16;;;;;;;6.85;1.90;;;;;;;22.80;45.15;101596.09;4396307;32;21728;-68
2021/10/12 08:58:42;;;;;;;7.70;1.58;;;;;;;22.60;45.65;101592.44;4404777;32;20042;-67
2021/10/12 09:01:10;;;;;;;4.68;1.37;;;;;;;22.71;45.89;101592.59;4407412;32;20101;-68
2021/10/12 09:03:59;;;;;;;5.18;1.52;;;;;;;22.86;45.56;101587.59;4408147;32;20543;-68
2021/10/12 09:09:05;;;;;;;5.22;1.20;;;;;;;23.26;45.09;101596.16;3946367;32;15725598;-69
2021/10/12 09:11:32;;;;;;;3.85;1.37;;;;;;;23.26;45.09;101596.16;4426883;32;20509;-69
2021/10/12 09:14:02;;;;;;;4.05;1.40;;;;;;;23.10;45.34;101586.03;4423871;32;20704;-69
2021/10/12 09:16:32;;;;;;;5.53;1.40;;;;;;;23.17;45.32;101593.41;4424155;32;20467;-69
2021/10/12 09:19:00;;;;;;;3.37;1.27;;;;;;;23.14;45.36;101580.06;4421944;32;20090;-70
2021/10/12 09:24:19;;;;;;;7.53;1.20;;;;;;;23.75;44.24;101581.47;3974400;32;15022611;-70
2021/10/12 09:26:49;;;;;;;2.47;1.20;;;;;;;23.75;44.24;101581.47;4424004;32;20084;-70
2021/10/12 09:29:27;;;;;;;2.17;1.40;;;;;;;23.42;44.67;101586.91;4430356;32;20753;-69
2021/10/12 09:31:56;;;;;;;3.78;1.25;;;;;;;23.65;44.17;101585.81;4431176;32;21261;-69
2021/10/12 09:34:23;;;;;;;1.42;1.20;;;;;;;23.83;44.05;101582.56;4425926;32;20077;-69
2021/10/12 09:36:50;;;;;;;3.08;1.20;;;;;;;23.67;44.24;101586.09;4418996;32;20238;-69
2021/10/12 09:39:27;;;;;;;7.68;1.48;;;;;;;23.94;43.89;101587.62;4429425;32;20069;-69
2021/10/12 09:41:56;;;;;;;5.50;1.10;;;;;;;24.15;43.38;101592.00;4431130;32;20371;-69
2021/10/12 09:44:22;;;;;;;6.75;1.10;;;;;;;24.15;43.13;101584.16;4426063;32;20131;-69
2021/10/12 09:46:50;;;;;;;5.07;1.23;;;;;;;24.61;42.50;101589.66;4429000;32;20140;-70
2021/10/12 09:49:21;;;;;;;1.75;0.80;;;;;;;24.81;42.03;101587.41;4425460;32;20269;-69
2021/10/12 09:54:34;;;;;;;4.68;1.10;;;;;;;25.27;40.95;101602.22;3967002;32;15024023;-69
2021/10/12 09:57:04;;;;;;;2.83;1.00;;;;;;;25.27;40.95;101602.22;4408159;32;20430;-70
2021/10/12 09:59:31;;;;;;;4.07;0.90;;;;;;;24.86;41.77;101595.31;4415820;32;20099;-69
2021/10/12 10:01:58;;;;;;;3.22;0.88;;;;;;;24.94;41.34;101596.34;4415188;32;20227;-69
2021/10/12 10:04:25;;;;;;;2.45;0.93;;;;;;;24.37;42.13;101601.56;4417199;32;20104;-69
2021/10/12 10:06:53;;;;;;;2.17;0.70;;;;;;;25.04;41.15;101603.47;4414817;32;20122;-70
2021/10/12 10:09:21;;;;;;;5.10;1.05;;;;;;;24.96;41.19;101595.84;4418397;32;20034;-70
2021/10/12 10:11:47;;;;;;;3.25;0.90;;;;;;;25.21;41.20;101598.53;4414326;32;20041;-69
2021/10/12 10:14:15;;;;;;;2.87;0.80;;;;;;;24.86;41.39;101600.25;4414859;32;20134;-70
2021/10/12 10:16:46;;;;;;;2.62;1.20;;;;;;;24.97;40.76;101603.16;4415782;32;21070;-70
2021/10/12 10:19:31;;;;;;;3.10;1.37;;;;;;;25.25;40.44;101607.72;4418718;32;20399;-70
2021/10/12 10:21:57;;;;;;;;;;;;;;;25.38;40.09;101607.25;4418387;32;20069;-70
2021/10/12 10:24:44;;;;;;;2.72;0.68;;;;;;;25.28;39.87;101605.91;4411545;32;19994;-69
2021/10/12 10:27:36;;;;;;;2.83;0.90;;;;;;;25.32;39.84;101601.47;4407440;32;20062;-70
2021/10/12 10:30:26;;;;;;;5.90;1.25;;;;;;;24.99;40.85;101592.72;4413083;32;20092;-69
2021/10/12 10:38:31;;;;;;;5.65;1.35;;;;;;;26.08;38.64;101607.06;3953010;32;15023225;-70
2021/10/12 10:44:00;;;;;;;3.92;1.00;;;;;;;26.36;37.93;101599.13;3987914;31;15014843;-69
2021/10/12 10:51:47;;;;;;;4.60;1.20;;;;;;;27.12;37.21;101600.97;3971737;32;15023634;-68
2021/10/12 10:57:20;;;;;;;2.72;0.80;;;;;;;27.26;36.01;101589.59;3977542;32;15022982;-69
2021/10/12 10:59:48;;;;;;;8.07;1.10;;;;;;;27.26;36.01;101589.59;4429274;32;20074;-69
2021/10/12 11:05:06;;;;;;;3.92;1.45;;;;;;;27.31;35.91;101586.72;3985166;31;15017821;-69
2021/10/12 11:07:31;;;;;;;2.87;0.90;;;;;;;27.31;35.91;101586.72;4436852;32;20068;-69
2021/10/12 11:09:58;;;;;;;6.20;1.08;;;;;;;26.55;36.85;101583.59;4432892;32;20103;-69
2021/10/12 11:12:27;;;;;;;2.75;0.90;;;;;;;27.13;36.02;101584.41;4433984;32;20576;-69
2021/10/12 11:14:54;;;;;;;2.15;1.02;;;;;;;26.71;36.43;101594.34;4433995;32;20145;-69
2021/10/12 11:17:19;;;;;;;3.40;0.88;;;;;;;26.97;36.42;101593.97;4437752;32;20132;-69
2021/10/12 11:22:31;;;;;;;3.03;1.15;;;;;;;26.43;37.28;101610.13;3974844;32;15022956;-69
2021/10/12 11:24:57;;;;;;;3.42;1.90;;;;;;;26.43;37.28;101610.13;4423497;32;20071;-69
2021/10/12 11:27:23;;;;;;;8.25;1.77;;;;;;;26.23;37.68;101610.44;4428447;32;20102;-69
2021/10/12 11:30:05;;;;;;;4.45;1.30;;;;;;;26.10;37.88;101610.19;4428181;32;20061;-67
2021/10/12 11:32:31;;;;;;;4.53;2.12;;;;;;;26.48;37.23;101603.56;4426719;32;20087;-69
2021/10/12 11:35:05;;;;;;;3.37;1.60;;;;;;;26.78;36.84;101595.87;4420954;32;20102;-68
2021/10/12 11:37:31;;;;;;;9.90;1.25;;;;;;;26.71;36.59;101591.44;4427713;32;20093;-69
2021/10/12 11:40:18;;;;;;;7.20;1.95;;;;;;;26.06;37.84;101595.25;4424745;32;20521;-69
2021/10/12 11:42:45;;;;;;;5.55;1.42;;;;;;;27.31;35.81;101594.56;4425809;32;20530;-70
2021/10/12 11:45:11;;;;;;;5.12;1.70;;;;;;;27.33;35.54;101586.16;4427790;32;20033;-71
2021/10/12 11:47:38;;;;;;;9.77;2.53;;;;;;;27.28;35.25;101587.78;4424442;32;21003;-70
2021/10/12 11:50:12;;;;;;;6.12;1.98;;;;;;;27.51;35.23;101588.38;4428255;32;20148;-70
2021/10/12 11:52:39;;;;;;;4.20;1.58;;;;;;;27.96;34.74;101584.62;4426002;32;20077;-71
2021/10/12 11:55:07;;;;;;;8.45;1.73;;;;;;;27.58;34.55;101579.91;4430521;32;20045;-70